createdAt,value
2018-02-23T00:00:35.815Z,4.80
2018-02-23T00:03:03.989Z,7.80
2018-02-23T00:05:32.266Z,8.67
2018-02-23T00:08:00.473Z,7.77
2018-02-23T00:10:28.747Z,6.67
2018-02-23T00:12:56.985Z,7.07
2018-02-23T05:29:44.654Z,8.47
2018-02-23T05:32:12.942Z,8.80
2018-02-23T05:34:41.213Z,10.50
2018-02-23T05:37:09.493Z,8.20
2018-02-23T05:39:37.773Z,8.20
2018-02-23T05:42:06.018Z,6.03
2018-02-23T05:44:35.043Z,7.77
2018-02-23T05:47:03.898Z,10.07
2018-02-23T05:49:32.993Z,14.97
2018-02-23T05:52:01.196Z,12.33
2018-02-23T05:54:29.445Z,9.70
2018-02-23T05:56:58.538Z,9.90
2018-02-23T05:59:26.752Z,23.77
2018-02-23T06:01:55.017Z,8.13
2018-02-23T06:04:23.237Z,11.80
2018-02-23T06:06:51.650Z,8.93
2018-02-23T06:09:20.639Z,20.17
2018-02-23T06:11:49.760Z,7.20
2018-02-23T06:14:17.982Z,9.43
2018-02-23T06:16:46.225Z,6.17
2018-02-23T06:19:20.193Z,10.80
2018-02-23T06:21:49.209Z,14.23
2018-02-23T06:24:17.434Z,14.00
2018-02-23T06:26:45.766Z,12.33
2018-02-23T06:29:14.013Z,7.87
2018-02-23T06:31:43.037Z,13.90
2018-02-23T06:34:11.265Z,12.30
2018-02-23T06:36:39.517Z,8.50
2018-02-23T06:39:07.740Z,10.73
2018-02-23T06:41:36.737Z,8.03
2018-02-23T06:44:06.537Z,10.40
2018-02-23T06:46:34.738Z,12.60
2018-02-23T06:49:03.020Z,15.87
2018-02-23T06:51:31.249Z,26.90
2018-02-23T06:53:59.569Z,9.87
2018-02-23T06:56:27.917Z,16.50
2018-02-23T06:58:56.111Z,11.87
2018-02-23T07:01:24.401Z,14.20
2018-02-23T07:03:52.676Z,13.80
2018-02-23T07:06:21.022Z,9.47
2018-02-23T07:08:49.243Z,8.67
2018-02-23T07:11:17.575Z,11.83
2018-02-23T07:13:45.789Z,14.77
2018-02-23T07:16:14.058Z,10.70
2018-02-23T07:18:42.304Z,14.10
2018-02-23T07:21:11.430Z,15.60
2018-02-23T07:23:39.654Z,13.77
2018-02-23T07:26:08.052Z,15.87
2018-02-23T07:28:36.252Z,15.03
2018-02-23T16:01:20.738Z,18.00
2018-02-23T16:03:49.173Z,20.73
2018-02-23T16:06:17.378Z,15.50
2018-02-23T16:08:45.622Z,17.30
2018-02-23T16:11:15.437Z,16.50
2018-02-23T16:13:43.637Z,21.30
2018-02-23T16:16:13.416Z,19.23
2018-02-23T16:18:41.652Z,27.30
2018-02-23T16:21:09.882Z,26.17
2018-02-23T16:23:38.100Z,21.90
2018-02-23T16:26:06.430Z,18.63
2018-02-23T16:28:34.610Z,21.80
2018-02-23T16:31:02.922Z,23.47
2018-02-23T16:33:31.126Z,19.60
2018-02-23T16:35:59.359Z,22.53
2018-02-23T16:38:28.358Z,20.17
2018-02-23T16:40:56.596Z,16.23
2018-02-23T16:43:24.808Z,17.93
2018-02-23T16:45:53.089Z,19.33
2018-02-23T16:48:21.334Z,21.10
2018-02-23T16:50:49.912Z,28.40
2018-02-23T16:53:18.121Z,23.03
2018-02-23T16:55:46.365Z,19.43
2018-02-23T16:58:14.576Z,15.97
2018-02-23T17:00:42.799Z,17.20
2018-02-23T17:03:11.012Z,18.83
2018-02-23T17:05:40.013Z,26.50
2018-02-23T17:08:09.081Z,22.80
2018-02-23T17:10:37.289Z,26.47
2018-02-23T17:13:05.488Z,17.40
2018-02-23T17:15:33.721Z,17.17
2018-02-23T17:18:02.694Z,22.97
2018-02-23T17:20:30.929Z,15.70
2018-02-23T17:22:59.200Z,19.57
2018-02-23T17:25:27.429Z,18.27
2018-02-23T17:27:55.638Z,20.60
2018-02-23T17:30:24.027Z,20.20
2018-02-23T17:32:52.186Z,22.23
2018-02-23T17:35:21.160Z,18.33
2018-02-23T17:37:50.166Z,20.10
2018-02-23T17:40:19.142Z,23.73
2018-02-23T17:42:47.701Z,20.53
2018-02-23T17:45:15.909Z,21.23
2018-02-23T17:47:44.918Z,19.37
2018-02-23T17:50:13.124Z,23.70
2018-02-23T17:52:48.113Z,20.17
2018-02-23T17:55:17.696Z,18.97
2018-02-23T17:57:45.938Z,27.87
2018-02-23T18:00:15.178Z,19.17
2018-02-23T18:02:43.433Z,26.23
2018-02-23T18:05:11.789Z,26.20
2018-02-23T18:07:40.059Z,17.27
2018-02-23T18:10:08.289Z,15.80
2018-02-23T18:12:36.497Z,23.83
2018-02-23T18:15:04.737Z,25.43
2018-02-23T18:17:32.979Z,19.87
2018-02-23T18:20:01.224Z,35.20
2018-02-23T18:22:29.467Z,21.47
2018-02-23T18:24:57.689Z,21.47
2018-02-23T18:27:25.904Z,19.10
2018-02-23T18:29:54.150Z,16.00
2018-02-23T18:32:22.813Z,20.47
2018-02-23T18:34:51.093Z,20.60
2018-02-23T18:37:19.329Z,18.30
2018-02-23T18:39:47.537Z,22.30
2018-02-23T18:42:15.887Z,21.60
2018-02-23T18:44:44.058Z,23.53
2018-02-23T18:47:12.296Z,24.50
2018-02-23T18:49:40.547Z,20.00
2018-02-23T18:52:08.777Z,18.70
2018-02-23T18:54:37.017Z,21.00
2018-02-23T18:57:05.311Z,20.10
2018-02-23T18:59:33.650Z,22.33
2018-02-23T19:02:02.681Z,20.67
2018-02-23T19:04:30.910Z,21.60
2018-02-23T19:06:59.908Z,22.17
2018-02-23T19:09:28.994Z,18.23
2018-02-23T19:11:57.221Z,20.27
2018-02-23T19:14:25.464Z,19.03
2018-02-23T19:16:53.673Z,18.43
2018-02-23T19:19:21.901Z,22.30
2018-02-23T19:21:50.901Z,20.10
2018-02-23T19:24:19.889Z,24.20
2018-02-23T19:26:48.892Z,25.40
2018-02-23T19:29:17.100Z,28.80
2018-02-23T19:31:45.449Z,17.90
2018-02-23T19:34:13.720Z,20.77
2018-02-23T19:36:41.930Z,19.00
2018-02-23T19:39:10.226Z,24.27
2018-02-23T19:41:38.389Z,23.07
2018-02-23T19:44:06.725Z,20.27
2018-02-23T19:46:35.005Z,27.03
2018-02-23T19:49:03.249Z,17.83
2018-02-23T19:51:31.552Z,23.13
2018-02-23T19:53:59.765Z,17.53
2018-02-23T19:56:28.008Z,28.73
2018-02-23T19:58:56.261Z,23.97
2018-02-23T20:01:24.470Z,24.97
2018-02-23T20:03:52.721Z,19.93
2018-02-23T20:06:21.697Z,21.97
2018-02-23T20:08:50.726Z,31.57
2018-02-23T20:11:18.953Z,22.37
2018-02-23T20:13:47.283Z,23.07
2018-02-23T20:16:15.555Z,23.03
2018-02-23T20:18:44.653Z,23.40
2018-02-23T20:21:12.901Z,19.80
2018-02-23T20:23:42.149Z,24.23
2018-02-23T20:26:10.475Z,19.53
2018-02-23T20:28:38.665Z,28.70
2018-02-23T20:31:07.668Z,23.47
2018-02-23T20:33:35.884Z,21.40
2018-02-23T20:36:04.146Z,25.97
2018-02-23T20:38:32.401Z,22.90
2018-02-23T20:41:00.632Z,29.63
2018-02-23T20:43:28.968Z,25.70
2018-02-23T20:45:57.187Z,33.40
2018-02-23T20:48:25.476Z,22.00
2018-02-23T20:50:53.656Z,25.10
2018-02-23T20:53:22.677Z,23.90
2018-02-23T20:55:50.893Z,20.50
2018-02-23T20:58:19.153Z,24.03
2018-02-23T21:00:47.414Z,22.97
2018-02-23T21:03:15.653Z,27.97
2018-02-23T21:05:43.966Z,25.47
2018-02-23T21:08:12.189Z,26.50
2018-02-23T21:10:40.436Z,22.77
2018-02-23T21:13:08.652Z,26.03
2018-02-23T21:15:36.901Z,25.20
2018-02-23T21:18:05.238Z,21.73
2018-02-23T21:20:33.490Z,23.97
2018-02-23T21:23:01.737Z,23.60
2018-02-23T21:25:29.961Z,26.53
2018-02-23T21:27:58.314Z,24.07
2018-02-23T21:30:26.522Z,17.97
2018-02-23T21:32:54.875Z,27.77
2018-02-23T21:35:23.092Z,26.00
2018-02-23T21:37:51.326Z,27.57
2018-02-23T21:40:19.581Z,25.27
2018-02-23T21:42:47.921Z,23.80
2018-02-23T21:45:16.253Z,26.40
2018-02-23T21:47:44.530Z,28.10
2018-02-23T21:50:12.688Z,20.60
2018-02-23T21:52:41.015Z,25.33
2018-02-23T21:55:09.332Z,27.57
2018-02-23T21:57:37.544Z,17.30
2018-02-23T22:00:07.381Z,24.40
2018-02-23T22:02:35.653Z,36.17
2018-02-23T22:05:03.986Z,20.37
2018-02-23T22:07:32.209Z,26.67
2018-02-23T22:10:00.452Z,26.70
2018-02-23T22:12:29.480Z,29.50
2018-02-23T22:14:57.758Z,23.23
2018-02-23T22:17:26.104Z,23.23
2018-02-23T22:19:54.312Z,20.80
2018-02-23T22:22:22.552Z,33.27
2018-02-23T22:24:51.620Z,36.77
2018-02-23T22:27:19.961Z,29.53
2018-02-23T22:29:48.207Z,29.37
2018-02-23T22:32:16.433Z,26.83
2018-02-23T22:34:44.716Z,29.03
2018-02-23T22:37:12.944Z,25.93
2018-02-23T22:39:41.954Z,21.23
2018-02-23T22:42:11.056Z,24.60
2018-02-23T22:44:39.333Z,21.73
2018-02-23T22:47:07.612Z,24.43
2018-02-23T22:49:36.432Z,25.03
2018-02-23T22:52:04.672Z,24.57
2018-02-23T22:54:32.953Z,30.73
2018-02-23T22:57:01.172Z,25.13
2018-02-23T22:59:29.475Z,29.00
2018-02-23T23:01:57.691Z,24.70
2018-02-23T23:04:25.957Z,25.97
2018-02-23T23:06:54.205Z,29.07
2018-02-23T23:09:23.210Z,23.33
2018-02-23T23:11:52.213Z,24.03
2018-02-23T23:14:20.460Z,27.47
2018-02-23T23:16:48.682Z,22.50
2018-02-23T23:19:16.912Z,24.80
2018-02-23T23:21:45.150Z,25.90
2018-02-23T23:24:13.400Z,31.70
2018-02-23T23:26:41.669Z,26.33
2018-02-23T23:29:09.888Z,23.60
2018-02-23T23:31:38.133Z,28.60
2018-02-23T23:34:06.368Z,21.43
2018-02-23T23:36:34.590Z,29.23
2018-02-23T23:39:02.924Z,24.07
2018-02-23T23:41:31.132Z,21.03
2018-02-23T23:44:00.261Z,24.00
2018-02-23T23:46:30.056Z,25.20
2018-02-23T23:48:58.302Z,27.70
2018-02-23T23:51:27.405Z,23.53
2018-02-23T23:53:55.627Z,24.67
2018-02-23T23:56:23.961Z,27.90
2018-02-23T23:58:52.236Z,27.37
